createdAt,value
2023-10-29T00:00:44.607Z,12.31
2023-10-29T00:02:49.705Z,12.35
2023-10-29T00:04:54.797Z,12.35
2023-10-29T00:07:00.600Z,12.36
2023-10-29T00:09:05.267Z,12.38
2023-10-29T00:11:10.063Z,12.42
2023-10-29T00:13:14.970Z,12.35
2023-10-29T00:15:22.711Z,12.39
2023-10-29T00:17:24.814Z,12.45
2023-10-29T00:19:29.746Z,12.43
2023-10-29T00:21:35.989Z,12.45
2023-10-29T00:23:40.944Z,12.49
2023-10-29T00:25:45.733Z,12.53
2023-10-29T00:27:50.467Z,12.50
2023-10-29T00:29:55.735Z,12.54
2023-10-29T00:32:03.209Z,12.52
2023-10-29T00:34:08.651Z,12.56
2023-10-29T00:36:13.737Z,12.59
2023-10-29T00:38:18.379Z,12.58
2023-10-29T00:40:23.365Z,12.61
2023-10-29T00:42:28.203Z,12.64
2023-10-29T00:44:32.976Z,12.64
2023-10-29T00:46:40.814Z,12.65
2023-10-29T00:48:45.810Z,12.67
2023-10-29T00:50:50.610Z,12.65
2023-10-29T00:52:55.548Z,12.66
2023-10-29T00:55:00.331Z,12.63
2023-10-29T00:57:05.190Z,12.56
2023-10-29T00:59:13.162Z,12.56
2023-10-29T01:01:18.363Z,12.54
2023-10-29T01:03:20.569Z,12.53
2023-10-29T01:05:27.994Z,12.49
2023-10-29T01:07:34.235Z,12.44
2023-10-29T01:09:41.476Z,12.39
2023-10-29T01:11:47.198Z,12.34
2023-10-29T01:13:49.436Z,12.37
2023-10-29T01:15:54.346Z,12.35
2023-10-29T01:18:00.411Z,12.34
2023-10-29T01:20:05.458Z,12.30
2023-10-29T01:22:12.904Z,12.31
2023-10-29T01:24:17.534Z,12.27
2023-10-29T01:26:22.699Z,12.25
2023-10-29T01:28:27.508Z,12.27
2023-10-29T01:30:32.366Z,12.26
2023-10-29T01:32:37.489Z,12.27
2023-10-29T01:34:42.282Z,12.30
2023-10-29T01:36:46.959Z,12.29
2023-10-29T01:38:54.515Z,12.33
2023-10-29T01:40:59.223Z,12.34
2023-10-29T01:43:01.278Z,12.37
2023-10-29T01:45:06.868Z,12.32
2023-10-29T01:47:11.579Z,12.32
2023-10-29T01:49:13.740Z,12.32
2023-10-29T01:51:19.452Z,12.31
2023-10-29T01:53:24.172Z,12.36
2023-10-29T01:55:32.667Z,12.35
2023-10-29T01:57:37.670Z,12.33
2023-10-29T01:59:43.153Z,12.32
2023-10-29T02:01:48.051Z,12.33
2023-10-29T02:03:52.820Z,12.27
2023-10-29T02:05:57.640Z,12.28
2023-10-29T02:08:02.348Z,12.31
2023-10-29T02:10:04.895Z,12.31
2023-10-29T02:12:13.154Z,12.31
2023-10-29T02:14:17.862Z,12.27
2023-10-29T02:16:20.090Z,12.28
2023-10-29T02:18:24.889Z,12.22
2023-10-29T02:20:29.691Z,12.24
2023-10-29T02:22:37.354Z,12.24
2023-10-29T02:24:42.026Z,12.28
2023-10-29T02:26:46.672Z,12.27
2023-10-29T02:28:51.385Z,12.25
2023-10-29T02:30:56.021Z,12.23
2023-10-29T02:33:00.793Z,12.23
2023-10-29T02:35:06.302Z,12.23
2023-10-29T02:37:10.964Z,12.23
2023-10-29T02:39:18.353Z,12.24
2023-10-29T02:41:23.455Z,12.26
2023-10-29T02:43:28.348Z,12.31
2023-10-29T02:45:33.326Z,12.31
2023-10-29T02:47:38.340Z,12.34
2023-10-29T02:49:41.188Z,12.39
2023-10-29T02:51:45.898Z,12.40
2023-10-29T02:53:48.404Z,12.40
2023-10-29T02:55:55.777Z,12.43
2023-10-29T02:58:00.406Z,12.47
2023-10-29T03:00:05.624Z,12.49
2023-10-29T03:02:10.519Z,12.47
2023-10-29T03:04:12.837Z,12.44
2023-10-29T03:06:17.826Z,12.42
2023-10-29T03:08:22.759Z,12.41
2023-10-29T03:10:27.623Z,12.40
2023-10-29T03:12:35.404Z,12.37
2023-10-29T03:14:40.339Z,12.33
2023-10-29T03:16:45.342Z,12.22
2023-10-29T03:18:51.488Z,12.17
2023-10-29T03:20:56.760Z,12.16
2023-10-29T03:22:58.807Z,12.13
2023-10-29T03:25:03.940Z,12.08
2023-10-29T03:27:10.106Z,12.04
2023-10-29T03:29:14.736Z,11.94
2023-10-29T03:31:20.344Z,11.89
2023-10-29T03:33:25.142Z,11.85
2023-10-29T03:35:30.339Z,11.86
2023-10-29T03:37:35.596Z,11.82
2023-10-29T03:39:40.322Z,11.81
2023-10-29T03:41:43.361Z,11.79
2023-10-29T03:43:48.825Z,11.78
2023-10-29T03:45:56.533Z,11.74
2023-10-29T03:48:01.473Z,11.71
2023-10-29T03:50:06.518Z,11.73
2023-10-29T03:52:08.594Z,11.71
2023-10-29T03:54:13.314Z,11.69
2023-10-29T03:56:18.125Z,11.67
2023-10-29T03:58:20.175Z,11.66
2023-10-29T04:00:25.855Z,11.65
2023-10-29T04:02:33.170Z,11.60
2023-10-29T04:04:42.318Z,11.61
2023-10-29T04:06:47.287Z,11.60
2023-10-29T04:08:51.994Z,11.56
2023-10-29T04:10:54.069Z,11.52
2023-10-29T04:12:58.749Z,11.49
2023-10-29T04:15:06.345Z,11.47
2023-10-29T04:17:12.954Z,11.43
2023-10-29T04:19:21.834Z,11.45
2023-10-29T04:21:26.507Z,11.46
2023-10-29T04:23:31.496Z,11.43
2023-10-29T04:25:36.332Z,11.44
2023-10-29T04:27:41.230Z,11.45
2023-10-29T04:29:43.497Z,11.47
2023-10-29T04:31:49.122Z,11.42
2023-10-29T04:33:53.803Z,11.42
2023-10-29T04:36:01.492Z,11.41
2023-10-29T04:38:06.190Z,11.37
2023-10-29T04:40:16.555Z,11.31
2023-10-29T04:42:21.629Z,11.27
2023-10-29T04:44:27.748Z,11.26
2023-10-29T04:46:32.453Z,11.28
2023-10-29T04:48:37.415Z,11.27
2023-10-29T04:50:42.324Z,11.28
2023-10-29T04:52:49.641Z,11.29
2023-10-29T04:54:54.718Z,11.25
2023-10-29T04:56:59.611Z,11.25
2023-10-29T04:59:04.527Z,11.22
2023-10-29T05:01:09.212Z,11.22
2023-10-29T05:03:14.029Z,11.22
2023-10-29T05:05:18.970Z,11.21
2023-10-29T05:07:24.231Z,11.22
2023-10-29T05:09:31.728Z,11.23
2023-10-29T05:11:37.180Z,11.24
2023-10-29T05:13:42.332Z,11.22
2023-10-29T05:15:47.142Z,11.20
2023-10-29T05:17:51.871Z,11.20
2023-10-29T05:19:57.063Z,11.18
2023-10-29T05:22:02.181Z,11.17
2023-10-29T05:24:07.437Z,11.13
2023-10-29T05:26:15.072Z,11.10
2023-10-29T05:28:19.928Z,11.06
2023-10-29T05:30:25.284Z,11.04
2023-10-29T05:32:27.618Z,11.01
2023-10-29T05:34:32.371Z,11.01
2023-10-29T05:36:37.044Z,11.05
2023-10-29T05:38:41.748Z,11.07
2023-10-29T05:40:43.907Z,11.08
2023-10-29T05:42:51.210Z,11.12
2023-10-29T05:44:55.850Z,11.14
2023-10-29T05:47:00.641Z,11.15
2023-10-29T05:49:05.425Z,11.16
2023-10-29T05:51:13.932Z,11.16
2023-10-29T05:53:18.664Z,11.17
2023-10-29T05:55:23.950Z,11.16
2023-10-29T05:57:28.637Z,11.20
2023-10-29T05:59:36.018Z,11.21
2023-10-29T06:01:40.804Z,11.21
2023-10-29T06:03:45.784Z,11.25
2023-10-29T06:05:50.866Z,11.21
2023-10-29T06:07:53.097Z,11.25
2023-10-29T06:09:57.834Z,11.26
2023-10-29T06:12:02.595Z,11.30
2023-10-29T06:14:07.598Z,11.34
2023-10-29T06:16:15.725Z,11.39
2023-10-29T06:18:20.520Z,11.40
2023-10-29T06:20:27.803Z,11.38
2023-10-29T06:22:32.545Z,11.42
2023-10-29T06:24:37.322Z,11.43
2023-10-29T06:26:42.164Z,11.42
2023-10-29T06:28:44.563Z,11.39
2023-10-29T06:30:49.522Z,11.42
2023-10-29T06:32:57.194Z,11.47
2023-10-29T06:35:01.833Z,11.53
2023-10-29T06:37:06.523Z,11.56
2023-10-29T06:39:11.352Z,11.61
2023-10-29T06:41:16.186Z,11.66
2023-10-29T06:43:21.241Z,11.68
2023-10-29T06:45:26.089Z,11.69
2023-10-29T06:47:31.103Z,11.62
2023-10-29T06:49:39.098Z,11.62
2023-10-29T06:51:43.731Z,11.61
2023-10-29T06:53:49.076Z,11.55
2023-10-29T06:55:53.747Z,11.60
2023-10-29T06:57:58.720Z,11.63
2023-10-29T07:00:03.514Z,11.70
2023-10-29T07:02:05.708Z,11.71
2023-10-29T07:04:11.003Z,11.75
2023-10-29T07:06:17.537Z,11.82
2023-10-29T07:08:22.541Z,11.84
2023-10-29T07:10:27.356Z,11.83
2023-10-29T07:12:32.567Z,11.87
2023-10-29T07:14:38.167Z,11.87
2023-10-29T07:16:45.470Z,11.93
2023-10-29T07:18:50.698Z,11.99
2023-10-29T07:20:57.056Z,12.10
2023-10-29T07:23:04.648Z,12.09
2023-10-29T07:25:07.410Z,12.10
2023-10-29T07:27:12.189Z,12.04
2023-10-29T07:29:17.109Z,12.05
2023-10-29T07:31:22.117Z,12.12
2023-10-29T07:33:27.047Z,12.13
2023-10-29T07:35:31.794Z,12.15
2023-10-29T07:37:33.908Z,12.13
2023-10-29T07:39:41.402Z,12.19
2023-10-29T07:41:46.162Z,12.22
2023-10-29T07:43:52.715Z,12.29
2023-10-29T07:45:58.056Z,12.35
2023-10-29T07:48:03.064Z,12.41
2023-10-29T07:50:08.382Z,12.43
2023-10-29T07:52:13.196Z,12.51
2023-10-29T07:54:17.901Z,12.50
2023-10-29T07:56:25.334Z,12.46
2023-10-29T07:58:30.002Z,12.46
2023-10-29T08:00:34.733Z,12.51
2023-10-29T08:02:36.924Z,12.56
2023-10-29T08:04:41.674Z,12.63
2023-10-29T08:06:44.735Z,12.70
2023-10-29T08:08:49.495Z,12.76
2023-10-29T08:10:54.284Z,12.74
2023-10-29T08:13:04.033Z,12.70
2023-10-29T08:15:09.511Z,12.66
2023-10-29T08:17:18.655Z,12.60
2023-10-29T08:19:25.250Z,12.61
2023-10-29T08:21:30.067Z,12.59
2023-10-29T08:23:34.732Z,12.61
2023-10-29T08:25:39.583Z,12.58
2023-10-29T08:27:44.449Z,12.58
2023-10-29T08:29:52.372Z,12.60
2023-10-29T08:31:57.200Z,12.63
2023-10-29T08:34:02.281Z,12.63
2023-10-29T08:36:07.597Z,12.68
2023-10-29T08:38:12.569Z,12.69
2023-10-29T08:40:17.954Z,12.68
2023-10-29T08:42:22.967Z,12.76
2023-10-29T08:44:28.991Z,12.79
2023-10-29T08:46:36.867Z,12.85
2023-10-29T08:48:42.283Z,12.91
2023-10-29T08:50:47.285Z,13.00
2023-10-29T08:52:52.066Z,13.09
2023-10-29T08:54:54.490Z,13.13
2023-10-29T08:56:59.187Z,13.24
2023-10-29T08:59:04.054Z,13.37
2023-10-29T09:01:12.832Z,13.53
2023-10-29T09:03:20.750Z,13.61
2023-10-29T09:05:25.642Z,13.65
2023-10-29T09:07:30.523Z,13.74
2023-10-29T09:09:36.940Z,13.79
2023-10-29T09:11:44.722Z,13.92
2023-10-29T09:13:46.875Z,13.99
2023-10-29T09:15:51.783Z,14.07
2023-10-29T09:17:56.729Z,14.21
2023-10-29T09:20:05.378Z,14.39
2023-10-29T09:22:10.777Z,14.49
2023-10-29T09:24:16.592Z,14.62
2023-10-29T09:26:21.365Z,14.73
2023-10-29T09:28:26.274Z,14.82
2023-10-29T09:30:31.061Z,14.91
2023-10-29T09:32:36.896Z,14.97
2023-10-29T09:34:43.415Z,15.04
2023-10-29T09:36:50.784Z,15.13
2023-10-29T09:38:55.857Z,15.19
2023-10-29T09:41:01.015Z,15.23
2023-10-29T09:43:10.005Z,15.26
2023-10-29T09:45:18.478Z,15.25
2023-10-29T09:47:24.593Z,15.33
2023-10-29T09:49:30.443Z,15.33
2023-10-29T09:51:35.286Z,15.42
2023-10-29T09:53:43.208Z,15.49
2023-10-29T09:55:48.076Z,15.41
2023-10-29T09:57:53.135Z,15.42
2023-10-29T09:59:55.382Z,15.47
2023-10-29T10:02:00.152Z,15.55
2023-10-29T10:04:05.264Z,15.57
2023-10-29T10:06:08.002Z,15.61
2023-10-29T10:08:13.319Z,15.68
2023-10-29T10:10:20.796Z,15.74
2023-10-29T10:12:27.127Z,15.78
2023-10-29T10:14:31.965Z,15.86
2023-10-29T10:16:36.661Z,15.93
2023-10-29T10:18:51.916Z,15.98
2023-10-29T10:21:01.543Z,16.06
2023-10-29T10:23:06.982Z,16.15
2023-10-29T10:25:19.407Z,16.11
2023-10-29T10:27:26.738Z,16.03
2023-10-29T10:29:34.924Z,15.98
2023-10-29T10:31:40.279Z,16.05
2023-10-29T10:33:45.157Z,16.07
2023-10-29T10:35:52.224Z,16.13
2023-10-29T10:37:55.341Z,16.12
2023-10-29T10:40:00.404Z,16.13
2023-10-29T10:42:05.282Z,16.18
2023-10-29T10:44:14.044Z,16.21
2023-10-29T10:46:21.618Z,16.19
2023-10-29T10:48:26.751Z,16.21
2023-10-29T10:50:31.970Z,16.18
2023-10-29T10:52:36.758Z,16.08
2023-10-29T10:54:44.067Z,16.07
2023-10-29T10:56:47.028Z,16.12
2023-10-29T10:58:52.429Z,16.10
2023-10-29T11:01:00.689Z,16.10
2023-10-29T11:03:17.091Z,16.09
2023-10-29T11:05:32.008Z,16.09
2023-10-29T11:07:37.101Z,16.10
2023-10-29T11:09:41.837Z,16.16
2023-10-29T11:11:46.184Z,16.18
2023-10-29T11:13:51.826Z,16.17
2023-10-29T11:15:59.249Z,16.17
2023-10-29T11:18:04.848Z,16.15
2023-10-29T11:20:10.527Z,16.12
2023-10-29T11:22:16.262Z,16.12
2023-10-29T11:24:22.459Z,16.08
2023-10-29T11:26:28.716Z,16.06
2023-10-29T11:28:46.730Z,16.13
2023-10-29T11:31:06.674Z,16.18
2023-10-29T11:33:24.118Z,16.20
2023-10-29T11:35:29.446Z,16.09
2023-10-29T11:37:37.850Z,16.03
2023-10-29T11:39:44.107Z,15.99
2023-10-29T11:41:46.859Z,16.00
2023-10-29T11:44:14.487Z,15.94
2023-10-29T11:46:19.223Z,15.92
2023-10-29T11:48:24.148Z,15.87
2023-10-29T11:50:29.203Z,15.88
2023-10-29T11:52:43.834Z,15.80
2023-10-29T11:54:49.328Z,15.77
2023-10-29T11:56:55.090Z,15.73
2023-10-29T11:59:06.953Z,15.66
2023-10-29T12:01:09.923Z,15.64
2023-10-29T12:03:15.021Z,15.57
2023-10-29T12:05:22.494Z,15.57
2023-10-29T12:07:25.642Z,15.56
2023-10-29T12:09:33.372Z,15.59
2023-10-29T12:11:35.505Z,15.51
2023-10-29T12:13:43.288Z,15.50
2023-10-29T12:15:49.672Z,15.35
2023-10-29T12:17:54.853Z,15.36
2023-10-29T12:19:59.841Z,15.39
2023-10-29T12:22:15.778Z,15.38
2023-10-29T12:24:20.495Z,15.29
2023-10-29T12:26:27.157Z,15.37
2023-10-29T12:28:31.941Z,15.39
2023-10-29T12:30:37.106Z,15.36
2023-10-29T12:32:42.216Z,15.35
2023-10-29T12:34:48.311Z,15.41
2023-10-29T12:36:54.817Z,15.42
2023-10-29T12:39:02.776Z,15.44
2023-10-29T12:41:09.695Z,15.43
2023-10-29T12:43:14.481Z,15.40
2023-10-29T12:45:26.227Z,15.44
2023-10-29T12:47:31.256Z,15.45
2023-10-29T12:49:37.554Z,15.46
2023-10-29T12:51:43.230Z,15.45
2023-10-29T12:53:46.276Z,15.48
2023-10-29T12:55:53.921Z,15.56
2023-10-29T12:57:59.199Z,15.61
2023-10-29T13:00:05.472Z,15.63
2023-10-29T13:02:11.186Z,15.71
2023-10-29T13:04:13.393Z,15.75
2023-10-29T13:06:18.237Z,15.80
2023-10-29T13:08:23.152Z,15.88
2023-10-29T13:10:27.844Z,15.93
2023-10-29T13:12:38.360Z,16.01
2023-10-29T13:14:43.249Z,16.08
2023-10-29T13:16:48.054Z,16.10
2023-10-29T13:18:52.926Z,16.16
2023-10-29T13:21:03.997Z,16.18
2023-10-29T13:23:06.328Z,16.20
2023-10-29T13:25:12.403Z,16.18
2023-10-29T13:27:17.151Z,16.18
2023-10-29T13:29:26.135Z,16.20
2023-10-29T13:31:31.103Z,16.23
2023-10-29T13:33:35.877Z,16.29
2023-10-29T13:35:41.798Z,16.30
2023-10-29T13:37:46.699Z,16.32
2023-10-29T13:39:53.175Z,16.31
2023-10-29T13:41:58.294Z,16.40
2023-10-29T13:44:03.114Z,16.48
2023-10-29T13:46:10.461Z,16.56
2023-10-29T13:48:15.415Z,16.64
2023-10-29T13:50:20.451Z,16.66
2023-10-29T13:52:22.655Z,16.72
2023-10-29T13:54:27.765Z,16.79
2023-10-29T13:56:32.413Z,16.86
2023-10-29T13:58:34.495Z,16.87
2023-10-29T14:00:39.623Z,16.89
2023-10-29T14:02:47.045Z,16.82
2023-10-29T14:04:51.813Z,16.86
2023-10-29T14:06:56.601Z,16.87
2023-10-29T14:09:01.398Z,16.89
2023-10-29T14:11:06.459Z,16.85
2023-10-29T14:13:11.232Z,16.75
2023-10-29T14:15:16.740Z,16.60
2023-10-29T14:17:21.565Z,16.52
2023-10-29T14:19:28.985Z,16.47
2023-10-29T14:21:34.057Z,16.50
2023-10-29T14:23:36.512Z,16.51
2023-10-29T14:25:41.207Z,16.51
2023-10-29T14:27:46.021Z,16.46
2023-10-29T14:29:50.840Z,16.47
2023-10-29T14:31:57.013Z,16.49
2023-10-29T14:34:01.649Z,16.44
2023-10-29T14:36:09.367Z,16.44
2023-10-29T14:38:14.224Z,16.50
2023-10-29T14:40:19.064Z,16.52
2023-10-29T14:42:23.791Z,16.45
2023-10-29T14:44:28.794Z,16.45
2023-10-29T14:46:34.983Z,16.46
2023-10-29T14:48:41.374Z,16.46
2023-10-29T14:50:46.185Z,16.42
2023-10-29T14:52:53.594Z,16.45
2023-10-29T14:54:58.352Z,16.48
2023-10-29T14:57:13.805Z,16.54
2023-10-29T14:59:27.096Z,16.51
2023-10-29T15:01:29.300Z,16.45
2023-10-29T15:03:34.250Z,16.42
2023-10-29T15:05:39.165Z,16.40
2023-10-29T15:07:43.911Z,16.42
2023-10-29T15:09:51.223Z,16.42
2023-10-29T15:11:59.514Z,16.40
2023-10-29T15:14:07.083Z,16.38
2023-10-29T15:16:12.167Z,16.30
2023-10-29T15:18:14.441Z,16.22
2023-10-29T15:20:19.396Z,16.17
2023-10-29T15:22:24.153Z,16.14
2023-10-29T15:24:28.874Z,16.13
2023-10-29T15:26:36.697Z,16.10
2023-10-29T15:28:38.767Z,16.11
2023-10-29T15:30:43.771Z,16.14
2023-10-29T15:32:48.897Z,16.13
2023-10-29T15:34:54.143Z,16.10
2023-10-29T15:36:59.637Z,16.07
2023-10-29T15:39:06.167Z,16.05
2023-10-29T15:41:11.265Z,16.03
2023-10-29T15:43:18.542Z,16.01
2023-10-29T15:45:20.940Z,15.95
2023-10-29T15:47:27.778Z,15.97
2023-10-29T15:49:30.172Z,15.96
2023-10-29T15:51:35.048Z,15.94
2023-10-29T15:53:39.942Z,15.96
2023-10-29T15:55:42.012Z,15.93
2023-10-29T15:57:47.646Z,15.90
2023-10-29T15:59:55.785Z,15.88
2023-10-29T16:02:00.545Z,15.89
2023-10-29T16:04:06.485Z,15.87
2023-10-29T16:06:11.336Z,15.83
2023-10-29T16:08:16.335Z,15.83
2023-10-29T16:10:20.984Z,15.83
2023-10-29T16:12:25.978Z,15.82
2023-10-29T16:14:30.753Z,15.82
2023-10-29T16:16:38.147Z,15.78
2023-10-29T16:18:42.910Z,15.78
2023-10-29T16:20:48.918Z,15.73
2023-10-29T16:22:53.678Z,15.72
2023-10-29T16:24:58.581Z,15.69
2023-10-29T16:27:03.292Z,15.69
2023-10-29T16:29:08.238Z,15.62
2023-10-29T16:31:13.087Z,15.62
2023-10-29T16:33:20.451Z,15.63
2023-10-29T16:35:26.151Z,15.60
2023-10-29T16:37:30.926Z,15.56
2023-10-29T16:39:36.489Z,15.53
2023-10-29T16:41:42.096Z,15.50
2023-10-29T16:43:51.197Z,15.45
2023-10-29T16:45:56.003Z,15.45
2023-10-29T16:48:00.771Z,15.43
2023-10-29T16:50:09.521Z,15.43
2023-10-29T16:52:15.786Z,15.44
2023-10-29T16:54:20.798Z,15.46
2023-10-29T16:56:25.610Z,15.44
2023-10-29T16:58:27.836Z,15.44
2023-10-29T17:00:32.683Z,15.39
2023-10-29T17:02:37.648Z,15.38
2023-10-29T17:04:42.485Z,15.35
2023-10-29T17:06:49.866Z,15.34
2023-10-29T17:08:55.673Z,15.32
2023-10-29T17:11:00.812Z,15.31
2023-10-29T17:13:05.565Z,15.31
2023-10-29T17:15:13.369Z,15.32
2023-10-29T17:17:18.129Z,15.33
2023-10-29T17:19:22.841Z,15.31
2023-10-29T17:21:27.584Z,15.30
2023-10-29T17:23:32.984Z,15.29
2023-10-29T17:25:38.659Z,15.29
2023-10-29T17:27:43.557Z,15.23
2023-10-29T17:29:51.447Z,15.24
2023-10-29T17:31:53.618Z,15.20
2023-10-29T17:33:58.399Z,15.23
2023-10-29T17:36:03.237Z,15.24
2023-10-29T17:38:08.087Z,15.29
2023-10-29T17:40:16.419Z,15.31
2023-10-29T17:42:24.209Z,15.33
2023-10-29T17:44:30.499Z,15.38
2023-10-29T17:46:35.324Z,15.43
2023-10-29T17:48:40.471Z,15.44
2023-10-29T17:50:45.188Z,15.45
2023-10-29T17:52:49.969Z,15.44
2023-10-29T17:54:54.614Z,15.47
2023-10-29T17:57:02.042Z,15.49
2023-10-29T17:59:07.824Z,15.50
2023-10-29T18:01:12.522Z,15.47
2023-10-29T18:03:17.478Z,15.31
2023-10-29T18:05:22.703Z,15.09
2023-10-29T18:07:27.381Z,15.04
2023-10-29T18:09:32.716Z,15.05
2023-10-29T18:11:37.428Z,15.07
2023-10-29T18:13:45.103Z,15.14
2023-10-29T18:15:49.750Z,15.21
2023-10-29T18:17:54.647Z,15.13
2023-10-29T18:19:59.749Z,15.09
2023-10-29T18:22:06.841Z,15.07
2023-10-29T18:24:12.980Z,15.02
2023-10-29T18:26:15.550Z,15.05
2023-10-29T18:28:20.643Z,15.00
2023-10-29T18:30:28.499Z,15.03
2023-10-29T18:32:33.719Z,15.08
2023-10-29T18:34:35.874Z,15.11
2023-10-29T18:36:41.083Z,15.15
2023-10-29T18:38:45.760Z,15.17
2023-10-29T18:40:50.624Z,15.19
2023-10-29T18:42:52.702Z,15.19
2023-10-29T18:44:57.609Z,15.02
2023-10-29T18:47:05.249Z,14.89
2023-10-29T18:49:10.185Z,14.70
2023-10-29T18:51:16.493Z,14.68
2023-10-29T18:53:21.135Z,14.62
2023-10-29T18:55:26.004Z,14.57
2023-10-29T18:57:31.915Z,14.55
2023-10-29T18:59:36.746Z,14.53
2023-10-29T19:01:41.799Z,14.53
2023-10-29T19:03:49.159Z,14.47
2023-10-29T19:05:54.423Z,14.43
2023-10-29T19:07:59.260Z,14.37
2023-10-29T19:10:04.633Z,14.30
2023-10-29T19:12:09.894Z,14.31
2023-10-29T19:14:14.663Z,14.34
2023-10-29T19:16:19.636Z,14.43
2023-10-29T19:18:24.469Z,14.41
2023-10-29T19:20:32.192Z,14.38
2023-10-29T19:22:36.857Z,14.34
2023-10-29T19:24:42.044Z,14.27
2023-10-29T19:26:46.914Z,14.23
2023-10-29T19:28:51.662Z,14.16
2023-10-29T19:31:16.858Z,14.11
2023-10-29T19:33:21.404Z,14.12
2023-10-29T19:35:26.083Z,14.17
2023-10-29T19:37:33.750Z,14.23
2023-10-29T19:39:38.510Z,14.22
2023-10-29T19:41:43.512Z,14.20
2023-10-29T19:43:48.338Z,14.20
2023-10-29T19:45:53.939Z,14.20
2023-10-29T19:47:58.833Z,14.20
2023-10-29T19:50:03.907Z,14.23
2023-10-29T19:52:10.013Z,14.25
2023-10-29T19:54:14.743Z,14.27
2023-10-29T19:56:19.502Z,14.25
2023-10-29T19:58:24.374Z,14.26
2023-10-29T20:00:31.709Z,14.25
2023-10-29T20:02:36.901Z,14.25
2023-10-29T20:04:41.974Z,14.18
2023-10-29T20:06:46.704Z,14.20
2023-10-29T20:08:51.524Z,14.19
2023-10-29T20:10:56.256Z,14.22
2023-10-29T20:13:01.095Z,14.23
2023-10-29T20:15:09.532Z,14.26
2023-10-29T20:17:14.756Z,14.28
2023-10-29T20:19:20.343Z,14.26
2023-10-29T20:21:22.506Z,14.19
2023-10-29T20:23:28.447Z,14.13
2023-10-29T20:25:33.135Z,14.04
2023-10-29T20:27:44.194Z,13.99
2023-10-29T20:29:50.307Z,14.06
2023-10-29T20:31:55.281Z,14.08
2023-10-29T20:34:00.116Z,14.09
2023-10-29T20:36:05.379Z,14.10
2023-10-29T20:38:10.324Z,14.14
2023-10-29T20:40:15.954Z,14.11
2023-10-29T20:42:20.709Z,14.16
2023-10-29T20:44:28.013Z,14.20
2023-10-29T20:46:33.946Z,14.26
2023-10-29T20:48:38.961Z,14.29
2023-10-29T20:50:44.077Z,14.29
2023-10-29T20:52:50.040Z,14.30
2023-10-29T20:54:52.127Z,14.32
2023-10-29T20:56:56.952Z,14.31
2023-10-29T20:58:59.001Z,14.33
2023-10-29T21:01:08.945Z,14.27
2023-10-29T21:03:13.900Z,14.24
2023-10-29T21:05:18.713Z,14.22
2023-10-29T21:07:23.685Z,14.23
2023-10-29T21:09:28.527Z,14.24
2023-10-29T21:11:33.223Z,14.25
2023-10-29T21:13:38.319Z,14.29
2023-10-29T21:15:44.963Z,14.32
2023-10-29T21:17:52.583Z,14.35
2023-10-29T21:19:57.442Z,14.37
2023-10-29T21:22:02.180Z,14.37
2023-10-29T21:24:07.363Z,14.37
2023-10-29T21:26:12.121Z,14.37
2023-10-29T21:28:17.235Z,14.37
2023-10-29T21:30:22.040Z,14.34
2023-10-29T21:32:26.859Z,14.32
2023-10-29T21:34:34.777Z,14.27
2023-10-29T21:36:40.104Z,14.26
2023-10-29T21:38:44.871Z,14.24
2023-10-29T21:40:49.724Z,14.23
2023-10-29T21:42:54.638Z,14.17
2023-10-29T21:44:59.343Z,14.10
2023-10-29T21:47:04.012Z,14.09
2023-10-29T21:49:09.204Z,14.06
2023-10-29T21:51:17.045Z,14.08
2023-10-29T21:53:19.202Z,14.10
2023-10-29T21:55:23.953Z,14.08
2023-10-29T21:57:28.780Z,14.07
2023-10-29T21:59:33.454Z,14.08
2023-10-29T22:01:38.159Z,14.10
2023-10-29T22:03:43.988Z,14.12
2023-10-29T22:05:58.520Z,14.08
2023-10-29T22:08:06.149Z,14.11
2023-10-29T22:10:11.287Z,14.13
2023-10-29T22:12:16.091Z,14.16
2023-10-29T22:14:18.225Z,14.17
2023-10-29T22:16:26.357Z,14.16
2023-10-29T22:18:28.585Z,14.12
2023-10-29T22:20:33.658Z,14.07
2023-10-29T22:22:38.506Z,14.02
2023-10-29T22:24:43.156Z,14.00
2023-10-29T22:26:47.961Z,13.94
2023-10-29T22:28:53.133Z,13.95
2023-10-29T22:31:00.514Z,13.95
2023-10-29T22:33:05.189Z,13.99
2023-10-29T22:35:10.338Z,13.99
2023-10-29T22:37:15.163Z,14.01
2023-10-29T22:39:20.222Z,14.00
2023-10-29T22:41:27.827Z,13.99
2023-10-29T22:43:32.987Z,14.00
2023-10-29T22:45:39.431Z,14.02
2023-10-29T22:47:44.904Z,14.06
2023-10-29T22:49:47.632Z,14.08
2023-10-29T22:51:52.568Z,14.08
2023-10-29T22:53:57.255Z,14.03
2023-10-29T22:56:03.235Z,14.02
2023-10-29T22:58:10.674Z,14.02
2023-10-29T23:00:16.742Z,14.04
2023-10-29T23:02:21.565Z,14.07
2023-10-29T23:04:26.362Z,14.10
2023-10-29T23:06:31.122Z,14.12
2023-10-29T23:08:35.970Z,14.14
2023-10-29T23:10:39.488Z,14.17
2023-10-29T23:12:44.275Z,14.19
2023-10-29T23:14:51.883Z,14.20
2023-10-29T23:16:56.760Z,14.19
2023-10-29T23:19:01.431Z,14.18
2023-10-29T23:21:06.711Z,14.16
2023-10-29T23:23:17.106Z,14.12
2023-10-29T23:25:21.825Z,14.12
2023-10-29T23:27:26.580Z,14.10
2023-10-29T23:29:31.710Z,14.08
2023-10-29T23:31:39.108Z,14.07
2023-10-29T23:33:43.849Z,14.04
2023-10-29T23:35:46.483Z,14.02
2023-10-29T23:37:51.258Z,14.02
2023-10-29T23:39:55.919Z,14.02
2023-10-29T23:42:00.581Z,14.03
2023-10-29T23:44:05.884Z,14.04
2023-10-29T23:46:10.611Z,14.07
2023-10-29T23:48:17.960Z,14.07
2023-10-29T23:50:22.762Z,14.06
2023-10-29T23:52:24.862Z,14.06
2023-10-29T23:54:30.048Z,14.08
2023-10-29T23:56:34.787Z,14.09
2023-10-29T23:58:39.532Z,14.10
